地図

経路データ

SID SEASON NUMBER BASIN SUBBASIN NAME ISO_TIME NATURE LAT LON WMO_WIND WMO_PRES WMO_AGENCY TRACK_TYPE DIST2LAND LANDFALL IFLAG USA_AGENCY USA_ATCF_ID USA_LAT USA_LON USA_RECORD USA_STATUS USA_WIND USA_PRES USA_SSHS USA_R34_NE USA_R34_SE USA_R34_SW USA_R34_NW USA_R50_NE USA_R50_SE USA_R50_SW USA_R50_NW USA_R64_NE USA_R64_SE USA_R64_SW USA_R64_NW USA_POCI USA_ROCI USA_RMW USA_EYE TOKYO_LAT TOKYO_LON TOKYO_GRADE TOKYO_WIND TOKYO_PRES TOKYO_R50_DIR TOKYO_R50_LONG TOKYO_R50_SHORT TOKYO_R30_DIR TOKYO_R30_LONG TOKYO_R30_SHORT TOKYO_LAND CMA_LAT CMA_LON CMA_CAT CMA_WIND CMA_PRES HKO_LAT HKO_LON HKO_CAT HKO_WIND HKO_PRES NEWDELHI_LAT NEWDELHI_LON NEWDELHI_GRADE NEWDELHI_WIND NEWDELHI_PRES NEWDELHI_CI NEWDELHI_DP NEWDELHI_POCI REUNION_LAT REUNION_LON REUNION_TYPE REUNION_WIND REUNION_PRES REUNION_TNUM REUNION_CI REUNION_RMW REUNION_R34_NE REUNION_R34_SE REUNION_R34_SW REUNION_R34_NW REUNION_R50_NE REUNION_R50_SE REUNION_R50_SW REUNION_R50_NW REUNION_R64_NE REUNION_R64_SE REUNION_R64_SW REUNION_R64_NW BOM_LAT BOM_LON BOM_TYPE BOM_WIND BOM_PRES BOM_TNUM BOM_CI BOM_RMW BOM_R34_NE BOM_R34_SE BOM_R34_SW BOM_R34_NW BOM_R50_NE BOM_R50_SE BOM_R50_SW BOM_R50_NW BOM_R64_NE BOM_R64_SE BOM_R64_SW BOM_R64_NW BOM_ROCI BOM_POCI BOM_EYE BOM_POS_METHOD BOM_PRES_METHOD NADI_LAT NADI_LON NADI_CAT NADI_WIND NADI_PRES WELLINGTON_LAT WELLINGTON_LON WELLINGTON_WIND WELLINGTON_PRES DS824_LAT DS824_LON DS824_STAGE DS824_WIND DS824_PRES TD9636_LAT TD9636_LON TD9636_STAGE TD9636_WIND TD9636_PRES TD9635_LAT TD9635_LON TD9635_WIND TD9635_PRES TD9635_ROCI NEUMANN_LAT NEUMANN_LON NEUMANN_CLASS NEUMANN_WIND NEUMANN_PRES MLC_LAT MLC_LON MLC_CLASS MLC_WIND MLC_PRES USA_GUST BOM_GUST BOM_GUST_PER REUNION_GUST REUNION_GUST_PER USA_SEAHGT USA_SEARAD_NE USA_SEARAD_SE USA_SEARAD_SW USA_SEARAD_NW STORM_SPEED STORM_DIR
1860227N26291 1860 22 NA NA NOT_NAMED 1860-08-13 12:00:00 TS 26.4000 -69.2000 main 697 692 _____________O -1 26.4000 -69.2000 TS 35 4 315
1860227N26291 1860 22 NA NA NOT_NAMED 1860-08-13 15:00:00 TS 26.5400 -69.3524 main 696 696 _____________P -1 26.5400 -69.3524 TS 35 4 318
1860227N26291 1860 22 NA NA NOT_NAMED 1860-08-13 18:00:00 TS 26.7000 -69.5000 main 709 709 _____________O -1 26.7000 -69.5000 TS 35 4 324
1860227N26291 1860 22 NA NA NOT_NAMED 1860-08-13 21:00:00 TS 26.8925 -69.6426 main 724 719 _____________P -1 26.8925 -69.6426 TS 35 5 326
1860227N26291 1860 22 NA NA NOT_NAMED 1860-08-14 00:00:00 TS 27.1000 -69.8000 main 734 734 _____________O -1 27.1000 -69.8000 TS 35 5 323
1860227N26291 1860 22 NA NA NOT_NAMED 1860-08-14 03:00:00 TS 27.3075 -69.9925 main 746 746 _____________P -1 27.3075 -69.9925 TS 35 5 318
1860227N26291 1860 22 NA NA NOT_NAMED 1860-08-14 06:00:00 TS 27.5000 -70.2000 main 758 755 _____________O -1 27.5000 -70.2000 TS 35 5 312
1860227N26291 1860 22 NA NA NOT_NAMED 1860-08-14 09:00:00 TS 27.6500 -70.4151 main 772 769 _____________P -1 27.6500 -70.4151 TS 35 5 310
1860227N26291 1860 22 NA NA NOT_NAMED 1860-08-14 12:00:00 TS 27.8000 -70.6000 main 776 776 _____________O -1 27.8000 -70.6000 TS 35 4 322
1860227N26291 1860 22 NA NA NOT_NAMED 1860-08-14 15:00:00 TS 27.9925 -70.7225 main 794 789 _____________P -1 27.9925 -70.7225 TS 37 4 336
1860227N26291 1860 22 NA NA NOT_NAMED 1860-08-14 18:00:00 TS 28.2000 -70.8000 main 794 794 _____________O -1 28.2000 -70.8000 TS 40 4 343
1860227N26291 1860 22 NA NA NOT_NAMED 1860-08-14 21:00:00 TS 28.4000 -70.8650 main 794 794 _____________P -1 28.4000 -70.8650 TS 40 4 348
1860227N26291 1860 22 NA NA NOT_NAMED 1860-08-15 00:00:00 TS 28.6000 -70.9000 main 804 804 _____________O -1 28.6000 -70.9000 TS 40 4 355
1860227N26291 1860 22 NA NA NOT_NAMED 1860-08-15 03:00:00 TS 28.8000 -70.9150 main 815 815 _____________P -1 28.8000 -70.9150 TS 40 4 0
1860227N26291 1860 22 NA NA NOT_NAMED 1860-08-15 06:00:00 TS 29.0000 -70.9000 main 826 808 _____________O -1 29.0000 -70.9000 TS 40 4 5
1860227N26291 1860 22 NA NA NOT_NAMED 1860-08-15 09:00:00 TS 29.2075 -70.8650 main 808 797 _____________P -1 29.2075 -70.8650 TS 40 4 12
1860227N26291 1860 22 NA NA NOT_NAMED 1860-08-15 12:00:00 TS 29.4000 -70.8000 main 797 789 _____________O -1 29.4000 -70.8000 TS 40 4 20
1860227N26291 1860 22 NA NA NOT_NAMED 1860-08-15 15:00:00 TS 29.5575 -70.7150 main 787 785 _____________P -1 29.5575 -70.7150 TS 40 3 30
1860227N26291 1860 22 NA NA NOT_NAMED 1860-08-15 18:00:00 TS 29.7000 -70.6000 main 785 784 _____________O -1 29.7000 -70.6000 TS 40 4 38
1860227N26291 1860 22 NA NA NOT_NAMED 1860-08-15 21:00:00 TS 29.8500 -70.4575 main 776 776 _____________P -1 29.8500 -70.4575 TS 42 4 41
1860227N26291 1860 22 NA NA NOT_NAMED 1860-08-16 00:00:00 TS 30.0000 -70.3000 main 782 781 _____________O -1 30.0000 -70.3000 TS 45 4 42
1860227N26291 1860 22 NA NA NOT_NAMED 1860-08-16 03:00:00 TS 30.1575 -70.1425 main 781 780 _____________P -1 30.1575 -70.1425 TS 45 4 41
1860227N26291 1860 22 NA NA NOT_NAMED 1860-08-16 06:00:00 TS 30.3000 -70.0000 main 780 780 _____________O -1 30.3000 -70.0000 TS 45 3 41
1860227N26291 1860 22 NA NA NOT_NAMED 1860-08-16 09:00:00 TS 30.4000 -69.8999 main 780 780 _____________P -1 30.4000 -69.8999 TS 45 3 41
1860227N26291 1860 22 NA NA NOT_NAMED 1860-08-16 12:00:00 TS 30.5000 -69.8000 main 780 773 _____________O -1 30.5000 -69.8000 TS 45 3 40
1860227N26291 1860 22 NA NA NOT_NAMED 1860-08-16 15:00:00 TS 30.6425 -69.6650 main 780 773 _____________P -1 30.6425 -69.6650 TS 45 4 41
1860227N26291 1860 22 NA NA NOT_NAMED 1860-08-16 18:00:00 TS 30.8000 -69.5000 main 781 781 _____________O -1 30.8000 -69.5000 TS 45 4 44
1860227N26291 1860 22 NA NA NOT_NAMED 1860-08-16 21:00:00 TS 30.9500 -69.3149 main 789 783 _____________P -1 30.9500 -69.3149 TS 45 5 49
1860227N26291 1860 22 NA NA NOT_NAMED 1860-08-17 00:00:00 TS 31.1000 -69.1000 main 790 790 _____________O -1 31.1000 -69.1000 TS 45 5 52
1860227N26291 1860 22 NA NA NOT_NAMED 1860-08-17 03:00:00 TS 31.2575 -68.8500 main 789 789 _____________P -1 31.2575 -68.8500 TS 42 5 55
1860227N26291 1860 22 NA NA NOT_NAMED 1860-08-17 06:00:00 TS 31.4000 -68.6000 main 804 804 _____________O -1 31.4000 -68.6000 TS 40 4 56
1860227N26291 1860 22 NA NA NOT_NAMED 1860-08-17 09:00:00 TS 31.4690 -68.4887 main 804 804 _____________P -1 31.4690 -68.4887 TS 40 4 60
1860227N26291 1860 22 NA NA NOT_NAMED 1860-08-17 12:00:00 TS 31.6000 -68.2000 main 820 820 _____________O -1 31.6000 -68.2000 TS 40 10 62
1860227N26291 1860 22 NA NA NOT_NAMED 1860-08-17 15:00:00 TS 31.9357 -67.4564 main 855 855 _____________P -1 31.9357 -67.4564 TS 37 16 64
1860227N26291 1860 22 NA NA NOT_NAMED 1860-08-17 18:00:00 TS 32.3000 -66.5000 main 914 914 _____________O -1 32.3000 -66.5000 TS 35 15 69
1860227N26291 1860 22 NA NA NOT_NAMED 1860-08-17 21:00:00 TS 32.4879 -65.7462 main 971 971 _____________P -1 32.4879 -65.7462 TS 35 16 75
1860227N26291 1860 22 NA NA NOT_NAMED 1860-08-18 00:00:00 TS 32.7000 -64.7000 main 1048 1048 _____________O -1 32.7000 -64.7000 TS 35 24 76
1860227N26291 1860 22 NA NA NOT_NAMED 1860-08-18 03:00:00 TS 33.0800 -62.9939 main 1138 1138 _____________P -1 33.0800 -62.9939 TS 32 32 76
1860227N26291 1860 22 NA NA NOT_NAMED 1860-08-18 06:00:00 TS 33.5000 -61.0000 main 1173 1171 _____________O -1 33.5000 -61.0000 TD 30 33 76
1860227N26291 1860 22 NA NA NOT_NAMED 1860-08-18 09:00:00 TS 33.8722 -59.1039 main 1195 1195 _____________P -1 33.8722 -59.1039 TD 30 31 77
1860227N26291 1860 22 NA NA NOT_NAMED 1860-08-18 12:00:00 TS 34.2000 -57.3000 main 1243 _____________O -1 34.2000 -57.3000 TD 30 31 78

IBTrACS Databaseについて

本データベースは、米国NOAAが公開する1842年以降の世界の熱帯低気圧のベストトラックデータアーカイブInternational Best Track Archive for Climate Stewardship (IBTrACS)を、ウェブで閲覧しやすい形式に変換したものです。

最終更新日:2021-10-27